createdAt,value
2023-01-13T00:00:47.974Z,99805.38
2023-01-13T00:03:28.621Z,99795.84
2023-01-13T00:06:02.037Z,99809.16
2023-01-13T00:08:32.446Z,99802.75
2023-01-13T00:11:02.960Z,99810.63
2023-01-13T00:13:35.461Z,99801.94
2023-01-13T00:16:08.128Z,99812.44
2023-01-13T00:18:40.844Z,99805.22
2023-01-13T00:21:14.909Z,99804.25
2023-01-13T00:23:46.123Z,99791.09
2023-01-13T00:26:18.399Z,99836.59
2023-01-13T00:28:48.496Z,99802.94
2023-01-13T00:31:21.454Z,99812.94
2023-01-13T00:33:54.203Z,99801.97
2023-01-13T00:36:24.739Z,99801.66
2023-01-13T00:38:54.861Z,99792.94
2023-01-13T00:41:27.609Z,99790.31
2023-01-13T00:43:57.850Z,99787.53
2023-01-13T00:46:28.303Z,99784.25
2023-01-13T00:49:00.949Z,99808.03
2023-01-13T00:51:31.295Z,99792.81
2023-01-13T00:54:01.363Z,99772.09
2023-01-13T00:56:40.292Z,99778.16
2023-01-13T00:59:14.795Z,99786.56
2023-01-13T01:01:45.671Z,99788.53
2023-01-13T01:04:19.726Z,99796.41
2023-01-13T01:06:50.948Z,99799.88
2023-01-13T01:09:21.107Z,99788.72
2023-01-13T01:11:51.719Z,99794.97
2023-01-13T01:14:21.931Z,99782.16
2023-01-13T01:16:52.277Z,99786.91
2023-01-13T01:19:24.981Z,99785.09
2023-01-13T01:21:55.707Z,99803.34
2023-01-13T01:24:26.636Z,99806.28
2023-01-13T01:27:13.421Z,99800.69
2023-01-13T01:29:43.983Z,99790.69
2023-01-13T01:32:16.294Z,99801.38
2023-01-13T01:34:49.646Z,99787.22
2023-01-13T01:37:20.318Z,99794.50
2023-01-13T01:39:50.637Z,99777.22
2023-01-13T01:42:34.429Z,99785.44
2023-01-13T01:45:13.495Z,99780.69
2023-01-13T01:47:45.066Z,99776.41
2023-01-13T01:50:20.000Z,99761.63
2023-01-13T01:52:59.528Z,99780.19
2023-01-13T01:55:34.812Z,99773.16
2023-01-13T01:58:10.820Z,99755.53
2023-01-13T02:00:41.573Z,99749.94
2023-01-13T02:03:14.272Z,99758.22
2023-01-13T02:05:47.229Z,99755.25
2023-01-13T02:08:18.179Z,99742.44
2023-01-13T02:10:53.323Z,99759.00
2023-01-13T02:13:25.357Z,99744.41
2023-01-13T02:16:02.688Z,99752.44
2023-01-13T02:18:56.701Z,99747.19
2023-01-13T02:22:07.873Z,99735.00
2023-01-13T02:25:07.869Z,99736.50
2023-01-13T02:27:56.423Z,99726.66
2023-01-13T02:30:55.352Z,99729.59
2023-01-13T02:33:45.054Z,99727.44
2023-01-13T02:36:23.767Z,99730.41
2023-01-13T02:38:59.490Z,99733.88
2023-01-13T02:41:47.405Z,99759.00
2023-01-13T02:44:21.349Z,99729.56
2023-01-13T02:47:00.520Z,99741.25
2023-01-13T02:49:37.062Z,99731.72
2023-01-13T02:52:13.332Z,99721.03
2023-01-13T02:54:46.969Z,99729.44
2023-01-13T02:57:20.082Z,99743.06
2023-01-13T02:59:51.024Z,99737.66
2023-01-13T03:02:26.241Z,99726.28
2023-01-13T03:04:58.438Z,99731.06
2023-01-13T03:08:10.599Z,99740.09
2023-01-13T03:10:53.273Z,99727.78
2023-01-13T03:13:50.376Z,99731.06
2023-01-13T03:16:31.040Z,99719.56
2023-01-13T03:19:24.832Z,99714.47
2023-01-13T03:21:58.728Z,99731.22
2023-01-13T03:24:33.527Z,99702.81
2023-01-13T03:27:08.296Z,99705.75
2023-01-13T03:29:46.218Z,99711.03
2023-01-13T03:32:23.584Z,99715.94
2023-01-13T03:35:08.352Z,99711.50
2023-01-13T03:38:19.587Z,99714.63
2023-01-13T03:48:20.338Z,99722.66
2023-01-13T03:51:23.150Z,99707.22
2023-01-13T03:54:02.763Z,99710.03
2023-01-13T03:56:36.885Z,99712.34
2023-01-13T03:59:10.815Z,99721.34
2023-01-13T04:01:48.602Z,99713.47
2023-01-13T04:04:24.038Z,99715.28
2023-01-13T04:07:00.924Z,99718.91
2023-01-13T04:09:36.204Z,99710.69
2023-01-13T04:12:12.695Z,99697.88
2023-01-13T04:14:44.338Z,99705.09
2023-01-13T04:17:17.611Z,99697.69
2023-01-13T04:19:47.894Z,99711.16
2023-01-13T04:22:21.133Z,99702.28
2023-01-13T04:24:51.431Z,99720.69
2023-01-13T04:27:22.028Z,99698.03
2023-01-13T04:29:52.291Z,99707.72
2023-01-13T04:32:22.879Z,99700.16
2023-01-13T04:34:53.151Z,99698.03
2023-01-13T04:37:26.370Z,99717.22
2023-01-13T04:39:56.789Z,99715.44
2023-01-13T04:42:27.421Z,99705.72
2023-01-13T04:44:57.655Z,99724.97
2023-01-13T04:47:28.274Z,99728.06
2023-01-13T04:49:58.519Z,99712.34
2023-01-13T04:52:31.734Z,99721.88
2023-01-13T04:55:01.985Z,99715.25
2023-01-13T04:57:33.348Z,99714.44
2023-01-13T05:00:03.793Z,99718.06
2023-01-13T05:02:34.677Z,99733.66
2023-01-13T05:05:04.792Z,99728.78
2023-01-13T05:07:37.919Z,99727.59
2023-01-13T05:10:09.006Z,99728.91
2023-01-13T05:12:52.299Z,99733.50
2023-01-13T05:15:34.795Z,99730.22
2023-01-13T05:18:05.775Z,99730.09
2023-01-13T05:20:35.725Z,99726.63
2023-01-13T05:23:21.853Z,99722.00
2023-01-13T05:25:52.702Z,99722.00
2023-01-13T05:28:23.041Z,99722.84
2023-01-13T05:30:53.101Z,99724.66
2023-01-13T05:33:23.480Z,99720.03
2023-01-13T05:35:53.669Z,99716.09
2023-01-13T05:38:26.565Z,99717.59
2023-01-13T05:41:08.942Z,99722.34
2023-01-13T05:43:39.380Z,99725.47
2023-01-13T05:46:12.034Z,99727.94
2023-01-13T05:48:44.448Z,99716.28
2023-01-13T05:51:15.668Z,99725.97
2023-01-13T05:53:48.644Z,99724.66
2023-01-13T05:56:19.244Z,99744.22
2023-01-13T05:58:49.576Z,99736.00
2023-01-13T06:01:22.992Z,99746.84
2023-01-13T06:03:56.664Z,99734.69
2023-01-13T06:06:27.739Z,99739.47
2023-01-13T06:09:02.978Z,99738.00
2023-01-13T06:11:32.995Z,99739.97
2023-01-13T06:14:03.281Z,99729.75
2023-01-13T06:16:33.352Z,99728.31
2023-01-13T06:19:03.717Z,99731.22
2023-01-13T06:21:33.716Z,99732.41
2023-01-13T06:24:07.354Z,99733.88
2023-01-13T06:26:40.867Z,99736.34
2023-01-13T06:29:14.050Z,99759.03
2023-01-13T06:31:44.160Z,99753.63
2023-01-13T06:34:16.872Z,99764.81
2023-01-13T06:36:51.767Z,99756.41
2023-01-13T06:39:31.070Z,99764.47
2023-01-13T06:42:14.721Z,99749.50
2023-01-13T06:44:45.487Z,99751.97
2023-01-13T06:47:15.608Z,99758.88
2023-01-13T06:49:45.963Z,99758.38
2023-01-13T06:52:15.957Z,99724.00
2023-01-13T06:54:48.824Z,99722.34
2023-01-13T06:57:18.764Z,99744.25
2023-01-13T06:59:50.599Z,99757.88
2023-01-13T07:02:20.846Z,99745.38
2023-01-13T07:04:51.326Z,99765.44
2023-01-13T07:07:21.363Z,99757.53
2023-01-13T07:09:54.384Z,99743.72
2023-01-13T07:12:24.346Z,99733.22
2023-01-13T07:15:07.107Z,99766.59
2023-01-13T07:17:37.173Z,99760.50
2023-01-13T07:20:08.706Z,99743.91
2023-01-13T07:22:38.648Z,99741.59
2023-01-13T07:25:13.140Z,99735.69
2023-01-13T07:27:43.154Z,99746.38
2023-01-13T07:30:15.041Z,99737.34
2023-01-13T07:32:45.079Z,99729.94
2023-01-13T07:35:15.329Z,99721.69
2023-01-13T07:37:45.267Z,99711.03
2023-01-13T07:40:18.307Z,99728.28
2023-01-13T07:43:00.730Z,99739.47
2023-01-13T07:45:36.259Z,99749.31
2023-01-13T07:48:06.644Z,99746.69
2023-01-13T07:50:37.211Z,99747.50
2023-01-13T07:53:07.559Z,99769.84
2023-01-13T07:55:44.174Z,99753.25
2023-01-13T07:58:14.474Z,99762.78
2023-01-13T08:00:44.919Z,99752.25
2023-01-13T08:03:14.880Z,99758.50
2023-01-13T08:05:45.212Z,99770.19
2023-01-13T08:08:15.439Z,99788.25
2023-01-13T08:10:48.433Z,99806.94
2023-01-13T08:13:21.251Z,99815.03
2023-01-13T08:15:53.256Z,99808.09
2023-01-13T08:18:24.762Z,99809.25
2023-01-13T08:20:55.890Z,99799.91
2023-01-13T08:23:26.254Z,99808.75
2023-01-13T08:26:02.786Z,99812.69
2023-01-13T08:28:33.831Z,99829.56
2023-01-13T08:31:06.206Z,99836.94
2023-01-13T08:33:36.492Z,99838.75
2023-01-13T08:36:07.951Z,99819.75
2023-01-13T08:38:38.833Z,99807.22
2023-01-13T08:41:37.904Z,99800.69
2023-01-13T08:44:09.483Z,99789.53
2023-01-13T08:46:39.900Z,99793.81
2023-01-13T08:49:09.824Z,99804.50
2023-01-13T08:51:40.074Z,99816.34
2023-01-13T08:54:10.045Z,99820.72
2023-01-13T08:56:43.779Z,99835.53
2023-01-13T08:59:15.800Z,99840.63
2023-01-13T09:01:47.104Z,99837.16
2023-01-13T09:04:20.215Z,99845.22
2023-01-13T09:06:51.861Z,99853.94
2023-01-13T09:09:22.220Z,99845.22
2023-01-13T09:12:07.886Z,99808.59
2023-01-13T09:14:40.771Z,99734.97
2023-01-13T09:17:11.383Z,99709.84
2023-01-13T09:19:41.884Z,99749.94
2023-01-13T09:22:16.694Z,99738.22
2023-01-13T09:24:47.395Z,99767.44
2023-01-13T09:27:20.826Z,99797.03
2023-01-13T09:29:52.127Z,99818.19
2023-01-13T09:32:22.880Z,99805.13
2023-01-13T09:35:03.075Z,99802.28
2023-01-13T09:37:36.855Z,99816.56
2023-01-13T09:40:09.998Z,99812.75
2023-01-13T09:43:02.019Z,99796.69
2023-01-13T09:45:37.725Z,99786.75
2023-01-13T09:48:15.897Z,99781.25
2023-01-13T09:50:59.624Z,99797.66
2023-01-13T09:53:32.948Z,99828.66
2023-01-13T09:56:03.737Z,99811.59
2023-01-13T09:58:37.160Z,99807.47
2023-01-13T10:01:17.955Z,99808.91
2023-01-13T10:03:49.394Z,99835.50
2023-01-13T10:06:24.015Z,99838.13
2023-01-13T10:08:55.984Z,99833.03
2023-01-13T10:11:40.133Z,99832.94
2023-01-13T10:14:21.250Z,99832.38
2023-01-13T10:16:55.820Z,99828.75
2023-01-13T10:19:31.331Z,99838.75
2023-01-13T10:22:24.880Z,99837.41
2023-01-13T10:25:10.570Z,99827.13
2023-01-13T10:27:46.735Z,99825.97
2023-01-13T10:30:27.552Z,99833.66
2023-01-13T10:32:59.640Z,99825.97
2023-01-13T10:35:59.540Z,99824.31
2023-01-13T10:38:33.089Z,99829.44
2023-01-13T10:41:05.049Z,99830.56
2023-01-13T10:43:36.904Z,99820.41
2023-01-13T10:46:13.839Z,99812.84
2023-01-13T10:48:46.169Z,99831.59
2023-01-13T10:51:26.026Z,99816.31
2023-01-13T10:54:01.798Z,99817.28
2023-01-13T10:56:34.859Z,99810.59
2023-01-13T10:59:24.051Z,99828.28
2023-01-13T11:02:26.822Z,99813.34
2023-01-13T11:05:05.605Z,99810.16
2023-01-13T11:07:38.763Z,99811.72
2023-01-13T11:10:22.815Z,99812.19
2023-01-13T11:13:02.234Z,99812.53
2023-01-13T11:15:42.169Z,99822.91
2023-01-13T11:18:22.537Z,99824.72
2023-01-13T11:20:55.876Z,99824.22
2023-01-13T11:23:31.267Z,99814.56
2023-01-13T11:26:06.958Z,99810.53
2023-01-13T11:28:44.930Z,99826.78
2023-01-13T11:31:24.561Z,99824.84
2023-01-13T11:34:02.677Z,99821.38
2023-01-13T11:36:41.733Z,99818.75
2023-01-13T11:39:24.271Z,99829.25
2023-01-13T11:42:12.259Z,99819.09
2023-01-13T11:44:48.894Z,99815.06
2023-01-13T11:47:23.489Z,99826.81
2023-01-13T11:49:57.030Z,99821.44
2023-01-13T11:52:35.655Z,99830.88
2023-01-13T11:55:22.683Z,99811.72
2023-01-13T11:58:12.913Z,99817.28
2023-01-13T12:01:11.008Z,99829.19
2023-01-13T12:03:44.730Z,99841.50
2023-01-13T12:06:29.048Z,99830.56
2023-01-13T12:09:25.051Z,99835.38
2023-01-13T12:12:18.692Z,99842.09
2023-01-13T12:15:07.733Z,99852.63
2023-01-13T12:17:48.496Z,99829.19
2023-01-13T12:20:36.311Z,99823.78
2023-01-13T12:23:28.378Z,99829.78
2023-01-13T12:26:04.737Z,99843.66
2023-01-13T12:28:51.786Z,99845.84
2023-01-13T12:31:27.828Z,99853.88
2023-01-13T12:34:25.795Z,99830.50
2023-01-13T12:37:04.880Z,99840.81
2023-01-13T12:39:48.314Z,99833.25
2023-01-13T12:42:35.290Z,99830.28
2023-01-13T12:45:26.964Z,99854.34
2023-01-13T12:47:58.057Z,99857.78
2023-01-13T12:50:50.555Z,99821.22
2023-01-13T12:54:03.457Z,99852.66
2023-01-13T12:56:42.411Z,99861.31
2023-01-13T12:59:49.025Z,99849.78
2023-01-13T13:02:56.362Z,99862.09
2023-01-13T13:05:47.934Z,99862.78
2023-01-13T13:08:34.926Z,99839.19
2023-01-13T13:11:53.405Z,99848.53
2023-01-13T13:14:53.853Z,99842.41
2023-01-13T13:17:45.389Z,99843.06
2023-01-13T13:20:45.772Z,99854.34
2023-01-13T13:23:44.383Z,99846.84
2023-01-13T13:26:21.292Z,99880.06
2023-01-13T13:29:04.257Z,99868.66
2023-01-13T13:31:47.998Z,99850.13
2023-01-13T13:35:11.475Z,99877.09
2023-01-13T13:38:06.328Z,99850.84
2023-01-13T13:40:54.966Z,99865.53
2023-01-13T13:44:13.911Z,99853.44
2023-01-13T13:47:36.547Z,99854.94
2023-01-13T13:50:34.637Z,99869.03
2023-01-13T13:53:09.577Z,99866.16
2023-01-13T13:55:40.002Z,99851.06
2023-01-13T13:58:20.211Z,99854.13
2023-01-13T14:00:51.975Z,99877.06
2023-01-13T14:03:26.845Z,99856.44
2023-01-13T14:06:02.639Z,99861.22
2023-01-13T14:08:36.237Z,99858.28
2023-01-13T14:11:28.171Z,99847.94
2023-01-13T14:14:06.471Z,99870.41
2023-01-13T14:16:40.344Z,99876.00
2023-01-13T14:19:29.017Z,99879.94
2023-01-13T14:22:04.181Z,99878.16
2023-01-13T14:24:35.059Z,99881.59
2023-01-13T14:27:13.375Z,99871.41
2023-01-13T14:29:43.779Z,99877.31
2023-01-13T14:32:20.048Z,99865.81
2023-01-13T14:34:50.415Z,99884.41
2023-01-13T14:37:38.123Z,99889.84
2023-01-13T14:40:09.005Z,99887.88
2023-01-13T14:42:46.667Z,99885.56
2023-01-13T14:45:29.435Z,99876.03
2023-01-13T14:48:11.939Z,99878.34
2023-01-13T14:50:42.683Z,99896.59
2023-01-13T14:53:37.825Z,99890.50
2023-01-13T14:56:55.088Z,99902.50
2023-01-13T14:59:45.779Z,99892.97
2023-01-13T15:02:41.433Z,99884.09
2023-01-13T15:05:51.304Z,99904.66
2023-01-13T15:08:40.074Z,99892.31
2023-01-13T15:11:21.859Z,99892.13
2023-01-13T15:14:01.222Z,99904.97
2023-01-13T15:16:34.963Z,99896.56
2023-01-13T15:19:05.642Z,99899.34
2023-01-13T15:21:37.086Z,99904.09
2023-01-13T15:24:10.125Z,99905.38
2023-01-13T15:26:40.581Z,99894.53
2023-01-13T15:29:17.635Z,99891.56
2023-01-13T15:31:47.977Z,99904.72
2023-01-13T15:34:17.923Z,99915.56
2023-01-13T15:36:48.229Z,99912.59
2023-01-13T15:39:20.841Z,99914.88
2023-01-13T15:42:06.586Z,99912.53
2023-01-13T15:44:50.018Z,99909.38
2023-01-13T15:47:25.706Z,99915.16
2023-01-13T15:49:56.913Z,99917.78
2023-01-13T15:52:30.759Z,99919.44
2023-01-13T15:55:05.215Z,99926.00
2023-01-13T15:57:41.465Z,99926.31
2023-01-13T16:00:17.701Z,99929.22
2023-01-13T16:02:49.603Z,99933.03
2023-01-13T16:05:20.183Z,99941.66
2023-01-13T16:10:48.120Z,99950.66
2023-01-13T16:13:28.384Z,99959.41
2023-01-13T16:16:01.292Z,99946.38
2023-01-13T16:18:31.664Z,99964.78
2023-01-13T16:21:01.668Z,99947.34
2023-01-13T16:23:34.969Z,99956.63
2023-01-13T16:26:10.796Z,99970.88
2023-01-13T16:28:41.507Z,99951.50
2023-01-13T16:31:22.616Z,99970.88
2023-01-13T16:33:52.998Z,99967.63
2023-01-13T16:36:24.184Z,99969.34
2023-01-13T16:38:55.412Z,99981.66
2023-01-13T16:41:27.963Z,99970.59
2023-01-13T16:44:06.052Z,99988.94
2023-01-13T16:46:47.499Z,99996.59
2023-01-13T16:49:20.719Z,100004.22
2023-01-13T16:51:50.930Z,100016.06
2023-01-13T16:54:21.303Z,100002.56
2023-01-13T16:56:53.934Z,100038.00
2023-01-13T16:59:24.513Z,100026.41
2023-01-13T17:01:57.191Z,100011.63
2023-01-13T17:04:30.182Z,100010.16
2023-01-13T17:07:03.326Z,100009.97
2023-01-13T17:09:33.988Z,100027.00
2023-01-13T17:12:10.003Z,100038.66
2023-01-13T17:14:43.781Z,100020.94
2023-01-13T17:17:26.023Z,100039.16
2023-01-13T17:19:57.325Z,100036.72
2023-01-13T17:22:27.267Z,100035.06
2023-01-13T17:24:57.647Z,100036.03
2023-01-13T17:27:30.509Z,100035.63
2023-01-13T17:30:01.018Z,100039.91
2023-01-13T17:32:31.118Z,100035.50
2023-01-13T17:35:02.639Z,100057.97
2023-01-13T17:37:35.228Z,100070.66
2023-01-13T17:40:10.286Z,100050.41
2023-01-13T17:42:42.875Z,100063.16
2023-01-13T17:45:14.344Z,100066.53
2023-01-13T17:47:47.266Z,100057.00
2023-01-13T17:50:19.008Z,100072.63
2023-01-13T17:52:50.254Z,100076.97
2023-01-13T17:55:22.456Z,100064.88
2023-01-13T17:57:55.091Z,100066.00
2023-01-13T18:00:25.678Z,100066.09
2023-01-13T18:02:55.873Z,100063.75
2023-01-13T18:05:26.408Z,100066.53
2023-01-13T18:07:56.559Z,100074.41
2023-01-13T18:10:26.850Z,100083.13
2023-01-13T18:12:59.711Z,100075.91
2023-01-13T18:15:30.072Z,100072.91
2023-01-13T18:18:00.401Z,100073.59
2023-01-13T18:20:43.302Z,100089.28
2023-01-13T18:23:32.021Z,100077.03
2023-01-13T18:26:14.927Z,100090.44
2023-01-13T18:28:47.788Z,100099.72
2023-01-13T18:31:21.104Z,100098.91
2023-01-13T18:33:51.351Z,100101.03
2023-01-13T18:36:22.079Z,100094.34
2023-01-13T18:38:53.467Z,100090.94
2023-01-13T18:41:36.679Z,100107.91
2023-01-13T18:44:09.588Z,100115.09
2023-01-13T18:46:40.123Z,100119.13
2023-01-13T18:49:10.336Z,100107.38
2023-01-13T18:51:41.559Z,100111.22
2023-01-13T18:54:12.313Z,100126.00
2023-01-13T18:56:43.061Z,100125.44
2023-01-13T18:59:15.881Z,100115.34
2023-01-13T19:01:46.850Z,100120.75
2023-01-13T19:04:19.150Z,100125.03
2023-01-13T19:06:51.759Z,100125.72
2023-01-13T19:09:26.494Z,100134.84
2023-01-13T19:12:01.310Z,100139.19
2023-01-13T19:14:37.852Z,100146.53
2023-01-13T19:17:10.942Z,100154.19
2023-01-13T19:19:43.328Z,100136.22
2023-01-13T19:22:19.747Z,100151.00
2023-01-13T19:24:53.353Z,100154.59
2023-01-13T19:27:27.521Z,100169.66
2023-01-13T19:30:00.847Z,100175.19
2023-01-13T19:32:36.212Z,100164.63
2023-01-13T19:35:07.663Z,100173.25
2023-01-13T19:37:40.592Z,100183.75
2023-01-13T19:40:13.906Z,100177.91
2023-01-13T19:42:58.534Z,100193.00
2023-01-13T19:45:32.451Z,100163.41
2023-01-13T19:48:05.563Z,100167.97
2023-01-13T19:50:39.954Z,100186.09
2023-01-13T19:53:15.764Z,100171.31
2023-01-13T19:55:48.572Z,100195.34
2023-01-13T19:58:20.107Z,100179.03
2023-01-13T20:00:57.810Z,100178.34
2023-01-13T20:03:35.439Z,100190.25
2023-01-13T20:06:09.931Z,100195.50
2023-01-13T20:08:40.764Z,100193.69
2023-01-13T20:11:31.067Z,100223.84
2023-01-13T20:14:02.325Z,100199.94
2023-01-13T20:16:35.770Z,100200.75
2023-01-13T20:19:06.187Z,100220.25
2023-01-13T20:21:37.821Z,100216.78
2023-01-13T20:24:11.386Z,100212.91
2023-01-13T20:26:41.299Z,100217.31
2023-01-13T20:29:11.625Z,100213.88
2023-01-13T20:31:44.289Z,100208.47
2023-01-13T20:34:14.774Z,100220.34
2023-01-13T20:36:44.663Z,100215.81
2023-01-13T20:39:17.818Z,100216.22
2023-01-13T20:42:00.481Z,100232.41
2023-01-13T20:44:31.115Z,100234.59
2023-01-13T20:47:03.729Z,100224.66
2023-01-13T20:49:35.335Z,100245.81
2023-01-13T20:52:09.372Z,100268.88
2023-01-13T20:54:39.763Z,100247.19
2023-01-13T20:57:12.329Z,100228.41
2023-01-13T20:59:43.340Z,100224.81
2023-01-13T21:02:18.124Z,100245.13
2023-01-13T21:04:48.895Z,100233.53
2023-01-13T21:07:22.670Z,100232.56
2023-01-13T21:10:14.134Z,100231.03
2023-01-13T21:12:56.907Z,100234.34
2023-01-13T21:15:28.332Z,100240.69
2023-01-13T21:18:13.570Z,100271.78
2023-01-13T21:20:44.433Z,100247.34
2023-01-13T21:23:15.028Z,100254.25
2023-01-13T21:25:45.639Z,100278.97
2023-01-13T21:28:17.031Z,100266.97
2023-01-13T21:30:47.916Z,100279.81
2023-01-13T21:33:21.653Z,100266.81
2023-01-13T21:35:52.292Z,100259.13
2023-01-13T21:38:22.579Z,100281.06
2023-01-13T21:40:59.744Z,100276.34
2023-01-13T21:43:42.427Z,100285.19
2023-01-13T21:46:27.471Z,100281.47
2023-01-13T21:49:00.102Z,100288.78
2023-01-13T21:51:31.045Z,100282.72
2023-01-13T21:54:01.516Z,100279.94
2023-01-13T21:56:34.912Z,100283.53
2023-01-13T21:59:05.011Z,100281.59
2023-01-13T22:01:35.440Z,100286.16
2023-01-13T22:04:15.201Z,100289.91
2023-01-13T22:06:45.499Z,100285.19
2023-01-13T22:09:15.475Z,100284.38
2023-01-13T22:11:45.776Z,100286.72
2023-01-13T22:14:15.776Z,100303.56
2023-01-13T22:16:49.639Z,100292.94
2023-01-13T22:19:22.274Z,100301.19
2023-01-13T22:21:52.775Z,100298.44
2023-01-13T22:24:25.229Z,100300.38
2023-01-13T22:26:55.495Z,100305.75
2023-01-13T22:29:25.552Z,100304.53
2023-01-13T22:31:55.880Z,100325.22
2023-01-13T22:34:28.423Z,100313.22
2023-01-13T22:36:58.706Z,100312.41
2023-01-13T22:39:29.154Z,100321.50
2023-01-13T22:41:59.566Z,100311.97
2023-01-13T22:44:29.748Z,100315.41
2023-01-13T22:47:12.942Z,100325.47
2023-01-13T22:49:47.753Z,100329.63
2023-01-13T22:52:18.386Z,100338.44
2023-01-13T22:54:48.470Z,100344.91
2023-01-13T22:57:18.924Z,100346.81
2023-01-13T22:59:48.870Z,100348.22
2023-01-13T23:02:19.494Z,100343.50
2023-01-13T23:04:52.921Z,100363.94
2023-01-13T23:07:26.285Z,100346.00
2023-01-13T23:09:56.269Z,100353.72
2023-01-13T23:12:26.810Z,100366.81
2023-01-13T23:14:56.829Z,100357.16
2023-01-13T23:17:27.261Z,100357.84
2023-01-13T23:19:59.738Z,100357.19
2023-01-13T23:22:30.508Z,100380.91
2023-01-13T23:25:01.195Z,100370.41
2023-01-13T23:27:31.651Z,100361.59
2023-01-13T23:30:01.605Z,100366.66
2023-01-13T23:32:31.997Z,100375.47
2023-01-13T23:35:04.690Z,100368.72
2023-01-13T23:37:35.127Z,100371.44
2023-01-13T23:40:05.388Z,100369.41
2023-01-13T23:42:36.004Z,100364.00
2023-01-13T23:45:07.080Z,100368.44
2023-01-13T23:47:37.691Z,100369.56
2023-01-13T23:50:12.071Z,100374.91
2023-01-13T23:52:42.701Z,100376.34
2023-01-13T23:55:13.086Z,100379.25
2023-01-13T23:57:43.703Z,100389.88
